CST,Max TemperatureF,Mean TemperatureF,Min TemperatureF,Max Dew PointF,MeanDew PointF,Min DewpointF,Max Humidity, Mean Humidity, Min Humidity, Max Sea Level PressureIn, Mean Sea Level PressureIn, Min Sea Level PressureIn, Max VisibilityMiles, Mean VisibilityMiles, Min VisibilityMiles, Max Wind SpeedMPH, Mean Wind SpeedMPH, Max Gust SpeedMPH,PrecipitationIn, CloudCover, Events, WindDirDegrees
2013-12-1,35,22,10,25,18,7,93,84,60,30.18,30.08,29.91,10,8,3,5,1,,0.00,3,,223
2013-12-2,37,32,26,34,29,23,100,88,75,29.91,29.70,29.58,7,4,1,12,4,16,0.06,7,Rain-Snow,94
2013-12-3,35,32,30,34,33,28,100,96,87,29.81,29.69,29.58,10,3,1,12,5,20,0.32,8,Rain-Snow,58
2013-12-4,30,22,14,28,24,9,100,88,73,29.80,29.61,29.46,10,5,0,18,8,29,0.00,8,Snow,356
2013-12-5,12,5,-4,9,-3,-9,85,72,61,30.28,30.00,29.63,10,8,1,20,13,28,0.00,1,Snow,251
2013-12-6,1,-5,-11,-8,-12,-17,84,73,61,30.59,30.44,30.28,10,10,10,10,6,,0.00,0,,253
2013-12-7,0,-8,-16,-11,-16,-20,84,74,60,30.65,30.59,30.52,10,10,10,9,3,,0.00,0,,231
2013-12-8,10,-2,-14,3,-4,-20,92,81,72,30.52,30.23,30.00,10,5,1,8,2,,0.00,7,Snow,87
2013-12-9,1,-3,-7,-2,-9,-13,85,74,60,30.04,29.97,29.81,10,8,0,16,6,25,0.00,2,Snow,222
2013-12-10,6,0,-5,0,-5,-9,85,74,61,30.26,29.97,29.74,10,8,2,13,7,20,0.00,3,Snow,247
2013-12-11,0,-6,-13,-6,-13,-18,78,68,55,30.51,30.39,30.25,10,10,2,14,8,18,0.00,1,Snow,237
2013-12-12,15,4,-7,10,0,-13,85,74,58,30.25,30.18,30.12,10,10,3,7,2,,0.00,4,Snow,217
2013-12-13,15,10,6,9,3,0,85,75,67,30.29,30.21,30.12,10,9,2,15,7,18,0.00,8,Snow,30
2013-12-14,12,4,-4,5,0,-9,85,76,67,30.28,30.15,30.05,10,6,1,12,6,,0.00,6,Snow,311
2013-12-15,0,-4,-9,-8,-12,-15,84,68,51,30.13,30.10,30.07,10,10,7,12,6,,0.00,3,,307
2013-12-16,21,8,-2,19,2,-11,93,79,60,30.08,29.95,29.82,10,7,0,10,5,,0.00,6,Snow,171
2013-12-17,33,17,1,28,13,-2,93,74,59,30.07,29.95,29.80,10,9,1,23,11,31,0.00,3,Snow,269
2013-12-18,33,18,3,21,14,0,93,79,59,30.03,29.75,29.61,10,10,10,14,4,17,0.01,0,,166
2013-12-19,21,16,12,18,8,3,86,76,62,30.09,30.01,29.80,10,8,1,15,9,23,0.00,5,Snow,3
2013-12-20,17,10,3,10,7,1,92,81,68,30.04,29.94,29.83,10,10,3,10,6,,0.00,6,Snow,2
2013-12-21,19,14,8,14,11,7,92,80,73,30.00,29.92,29.84,10,9,4,9,3,,0.00,8,Snow,337
2013-12-22,17,12,6,12,8,1,86,81,73,30.20,30.05,29.94,10,5,2,12,7,,0.00,8,Snow,312
2013-12-23,6,-5,-18,1,-10,-24,85,72,60,30.47,30.37,30.21,10,7,2,14,9,18,0.00,6,Snow,296
2013-12-24,10,-6,-22,7,-13,-29,85,72,48,30.44,30.28,30.09,10,8,1,12,3,16,0.00,3,Snow,138
2013-12-25,23,16,10,18,10,5,93,81,68,30.10,30.05,30.01,10,8,2,18,5,22,0.00,7,Snow,244
2013-12-26,21,14,6,16,12,3,92,81,74,30.14,30.08,30.04,10,8,1,5,1,,0.00,7,Snow,89
2013-12-27,41,22,3,30,22,0,100,85,65,30.13,29.96,29.83,10,7,0,14,4,18,0.20,3,Fog,199
2013-12-28,35,24,12,34,25,7,100,91,73,30.05,29.82,29.66,10,4,0,26,5,37,0.09,7,Fog-Snow,19
2013-12-29,12,-5,-22,7,-15,-29,79,64,46,30.31,30.24,30.06,10,10,10,21,12,28,0.00,3,,305
2013-12-30,0,-11,-22,-6,-16,-29,85,75,66,30.24,30.19,30.15,10,6,2,5,1,,0.00,5,Snow,86
2013-12-31,-5,-15,-25,-13,-20,-33,84,74,60,30.40,30.28,30.16,10,10,7,6,2,,0.00,0,,283